sensor_id;sensor_type;location;lat;lon;timestamp;P1;durP1;ratioP1;P2;durP2;ratioP2
45252;SDS011;63171;50.520;30.486;2024-03-23T00:51:42;13.57;;;11.95;;
45252;SDS011;63171;50.520;30.486;2024-03-23T00:54:15;17.02;;;13.60;;
45252;SDS011;63171;50.520;30.486;2024-03-23T00:55:05;15.57;;;12.52;;
45252;SDS011;63171;50.520;30.486;2024-03-23T00:55:54;17.77;;;12.88;;
45252;SDS011;63171;50.520;30.486;2024-03-23T00:56:44;14.75;;;13.00;;
45252;SDS011;63171;50.520;30.486;2024-03-23T00:57:35;14.13;;;11.57;;
45252;SDS011;63171;50.520;30.486;2024-03-23T00:58:25;19.02;;;12.75;;
45252;SDS011;63171;50.520;30.486;2024-03-23T00:59:15;13.77;;;12.38;;
45252;SDS011;63171;50.520;30.486;2024-03-23T01:00:05;15.05;;;12.25;;
45252;SDS011;63171;50.520;30.486;2024-03-23T01:07:24;15.13;;;11.93;;
45252;SDS011;63171;50.520;30.486;2024-03-23T01:08:15;20.60;;;13.63;;
45252;SDS011;63171;50.520;30.486;2024-03-23T01:09:05;20.17;;;14.15;;
45252;SDS011;63171;50.520;30.486;2024-03-23T01:09:55;15.63;;;12.75;;
45252;SDS011;63171;50.520;30.486;2024-03-23T01:10:53;19.25;;;14.93;;
45252;SDS011;63171;50.520;30.486;2024-03-23T01:11:43;20.98;;;13.52;;
45252;SDS011;63171;50.520;30.486;2024-03-23T01:12:34;16.50;;;13.40;;
45252;SDS011;63171;50.520;30.486;2024-03-23T01:13:24;14.77;;;11.95;;
45252;SDS011;63171;50.520;30.486;2024-03-23T01:14:14;15.82;;;12.63;;
45252;SDS011;63171;50.520;30.486;2024-03-23T01:15:04;18.55;;;13.85;;
45252;SDS011;63171;50.520;30.486;2024-03-23T01:15:54;17.52;;;12.25;;
45252;SDS011;63171;50.520;30.486;2024-03-23T01:16:46;14.27;;;12.77;;
45252;SDS011;63171;50.520;30.486;2024-03-23T01:17:36;15.30;;;12.52;;
45252;SDS011;63171;50.520;30.486;2024-03-23T01:18:25;15.18;;;12.60;;
45252;SDS011;63171;50.520;30.486;2024-03-23T01:19:15;20.25;;;13.65;;
45252;SDS011;63171;50.520;30.486;2024-03-23T01:20:07;15.48;;;12.40;;
45252;SDS011;63171;50.520;30.486;2024-03-23T01:20:57;16.40;;;13.70;;
45252;SDS011;63171;50.520;30.486;2024-03-23T01:21:46;15.88;;;12.02;;
45252;SDS011;63171;50.520;30.486;2024-03-23T01:22:39;14.07;;;11.88;;
45252;SDS011;63171;50.520;30.486;2024-03-23T01:23:29;17.48;;;12.57;;
45252;SDS011;63171;50.520;30.486;2024-03-23T01:24:20;13.88;;;11.98;;
45252;SDS011;63171;50.520;30.486;2024-03-23T01:25:10;14.35;;;12.75;;
45252;SDS011;63171;50.520;30.486;2024-03-23T01:25:59;16.33;;;12.10;;
45252;SDS011;63171;50.520;30.486;2024-03-23T01:26:49;15.18;;;12.95;;
45252;SDS011;63171;50.520;30.486;2024-03-23T01:27:40;17.55;;;12.18;;
45252;SDS011;63171;50.520;30.486;2024-03-23T01:28:30;17.30;;;12.80;;
45252;SDS011;63171;50.520;30.486;2024-03-23T01:29:19;16.33;;;13.10;;
45252;SDS011;63171;50.520;30.486;2024-03-23T01:30:09;15.98;;;12.43;;
45252;SDS011;63171;50.520;30.486;2024-03-23T01:31:00;17.77;;;13.52;;
45252;SDS011;63171;50.520;30.486;2024-03-23T01:31:50;15.65;;;12.65;;
45252;SDS011;63171;50.520;30.486;2024-03-23T01:32:39;16.88;;;12.90;;
45252;SDS011;63171;50.520;30.486;2024-03-23T01:33:29;14.85;;;13.13;;
45252;SDS011;63171;50.520;30.486;2024-03-23T01:34:19;15.45;;;11.80;;
45252;SDS011;63171;50.520;30.486;2024-03-23T01:35:10;15.20;;;12.70;;
45252;SDS011;63171;50.520;30.486;2024-03-23T01:36:00;14.13;;;12.13;;
45252;SDS011;63171;50.520;30.486;2024-03-23T01:36:50;15.63;;;12.75;;
45252;SDS011;63171;50.520;30.486;2024-03-23T01:37:41;18.33;;;13.32;;
45252;SDS011;63171;50.520;30.486;2024-03-23T01:38:31;15.93;;;12.55;;
45252;SDS011;63171;50.520;30.486;2024-03-23T01:39:21;15.70;;;13.48;;
45252;SDS011;63171;50.520;30.486;2024-03-23T01:40:11;19.38;;;12.40;;
45252;SDS011;63171;50.520;30.486;2024-03-23T01:41:02;15.20;;;12.00;;
45252;SDS011;63171;50.520;30.486;2024-03-23T01:41:52;12.90;;;11.68;;
45252;SDS011;63171;50.520;30.486;2024-03-23T01:42:54;16.33;;;12.32;;
45252;SDS011;63171;50.520;30.486;2024-03-23T01:43:44;14.13;;;11.88;;
45252;SDS011;63171;50.520;30.486;2024-03-23T01:44:34;14.18;;;12.75;;
45252;SDS011;63171;50.520;30.486;2024-03-23T01:45:24;19.15;;;11.57;;
45252;SDS011;63171;50.520;30.486;2024-03-23T01:46:13;16.42;;;13.23;;
45252;SDS011;63171;50.520;30.486;2024-03-23T01:47:04;13.73;;;11.80;;
45252;SDS011;63171;50.520;30.486;2024-03-23T01:47:55;16.80;;;12.48;;
45252;SDS011;63171;50.520;30.486;2024-03-23T01:48:45;13.77;;;12.27;;
45252;SDS011;63171;50.520;30.486;2024-03-23T01:49:35;13.57;;;11.77;;
45252;SDS011;63171;50.520;30.486;2024-03-23T01:51:15;15.45;;;12.23;;
45252;SDS011;63171;50.520;30.486;2024-03-23T01:52:05;15.43;;;12.20;;
45252;SDS011;63171;50.520;30.486;2024-03-23T01:52:57;16.85;;;11.85;;
45252;SDS011;63171;50.520;30.486;2024-03-23T01:53:47;12.85;;;11.50;;
45252;SDS011;63171;50.520;30.486;2024-03-23T01:54:38;12.57;;;10.80;;
45252;SDS011;63171;50.520;30.486;2024-03-23T01:55:28;14.93;;;12.35;;
45252;SDS011;63171;50.520;30.486;2024-03-23T01:56:18;16.98;;;12.77;;
45252;SDS011;63171;50.520;30.486;2024-03-23T01:57:08;15.02;;;12.02;;
45252;SDS011;63171;50.520;30.486;2024-03-23T01:57:59;13.40;;;11.25;;
45252;SDS011;63171;50.520;30.486;2024-03-23T01:58:48;16.02;;;10.88;;
45252;SDS011;63171;50.520;30.486;2024-03-23T01:59:39;17.95;;;12.00;;
45252;SDS011;63171;50.520;30.486;2024-03-23T02:00:30;15.32;;;11.43;;
45252;SDS011;63171;50.520;30.486;2024-03-23T02:01:20;14.48;;;11.57;;
45252;SDS011;63171;50.520;30.486;2024-03-23T02:02:11;15.32;;;11.88;;
45252;SDS011;63171;50.520;30.486;2024-03-23T02:03:01;16.45;;;12.88;;
45252;SDS011;63171;50.520;30.486;2024-03-23T02:03:51;12.73;;;10.15;;
45252;SDS011;63171;50.520;30.486;2024-03-23T02:04:40;13.82;;;12.52;;
45252;SDS011;63171;50.520;30.486;2024-03-23T02:05:30;14.13;;;12.60;;
45252;SDS011;63171;50.520;30.486;2024-03-23T02:06:21;14.15;;;11.60;;
45252;SDS011;63171;50.520;30.486;2024-03-23T02:08:03;16.73;;;12.15;;
45252;SDS011;63171;50.520;30.486;2024-03-23T02:08:53;13.35;;;11.43;;
45252;SDS011;63171;50.520;30.486;2024-03-23T02:09:43;14.85;;;12.05;;
45252;SDS011;63171;50.520;30.486;2024-03-23T02:10:33;15.27;;;13.05;;
45252;SDS011;63171;50.520;30.486;2024-03-23T02:11:23;16.83;;;12.52;;
45252;SDS011;63171;50.520;30.486;2024-03-23T02:12:13;14.35;;;11.55;;
45252;SDS011;63171;50.520;30.486;2024-03-23T02:13:05;15.25;;;11.30;;
45252;SDS011;63171;50.520;30.486;2024-03-23T02:13:55;13.45;;;11.48;;
45252;SDS011;63171;50.520;30.486;2024-03-23T02:14:45;13.43;;;11.65;;
45252;SDS011;63171;50.520;30.486;2024-03-23T02:15:35;14.13;;;12.35;;
45252;SDS011;63171;50.520;30.486;2024-03-23T02:16:25;13.50;;;12.10;;
45252;SDS011;63171;50.520;30.486;2024-03-23T02:17:15;15.43;;;12.90;;
45252;SDS011;63171;50.520;30.486;2024-03-23T02:18:06;14.93;;;12.02;;
45252;SDS011;63171;50.520;30.486;2024-03-23T02:18:56;15.38;;;11.68;;
45252;SDS011;63171;50.520;30.486;2024-03-23T02:19:46;13.32;;;11.98;;
45252;SDS011;63171;50.520;30.486;2024-03-23T02:20:36;23.13;;;13.38;;
45252;SDS011;63171;50.520;30.486;2024-03-23T02:21:27;17.02;;;12.35;;
45252;SDS011;63171;50.520;30.486;2024-03-23T02:22:21;13.95;;;12.48;;
45252;SDS011;63171;50.520;30.486;2024-03-23T02:23:15;11.85;;;10.48;;
45252;SDS011;63171;50.520;30.486;2024-03-23T02:24:06;17.77;;;11.82;;
45252;SDS011;63171;50.520;30.486;2024-03-23T02:24:57;15.52;;;11.95;;
45252;SDS011;63171;50.520;30.486;2024-03-23T02:25:46;14.50;;;12.13;;
45252;SDS011;63171;50.520;30.486;2024-03-23T02:26:36;14.15;;;12.48;;
45252;SDS011;63171;50.520;30.486;2024-03-23T02:27:26;18.38;;;12.43;;
45252;SDS011;63171;50.520;30.486;2024-03-23T02:28:16;14.20;;;12.07;;
45252;SDS011;63171;50.520;30.486;2024-03-23T02:29:06;15.32;;;11.18;;
45252;SDS011;63171;50.520;30.486;2024-03-23T02:29:58;15.48;;;12.38;;
45252;SDS011;63171;50.520;30.486;2024-03-23T02:30:48;14.38;;;11.68;;
45252;SDS011;63171;50.520;30.486;2024-03-23T02:31:39;16.67;;;12.52;;
45252;SDS011;63171;50.520;30.486;2024-03-23T02:32:29;13.25;;;11.73;;
45252;SDS011;63171;50.520;30.486;2024-03-23T02:33:18;13.00;;;11.60;;
45252;SDS011;63171;50.520;30.486;2024-03-23T02:34:08;16.13;;;11.70;;
45252;SDS011;63171;50.520;30.486;2024-03-23T02:34:58;13.48;;;11.15;;
45252;SDS011;63171;50.520;30.486;2024-03-23T02:35:48;19.02;;;14.98;;
45252;SDS011;63171;50.520;30.486;2024-03-23T02:36:39;14.02;;;11.85;;
45252;SDS011;63171;50.520;30.486;2024-03-23T02:37:29;17.35;;;12.48;;
45252;SDS011;63171;50.520;30.486;2024-03-23T02:38:20;12.85;;;11.65;;
45252;SDS011;63171;50.520;30.486;2024-03-23T02:39:10;12.85;;;11.38;;
45252;SDS011;63171;50.520;30.486;2024-03-23T02:40:00;21.20;;;13.40;;
45252;SDS011;63171;50.520;30.486;2024-03-23T02:40:51;13.57;;;12.13;;
45252;SDS011;63171;50.520;30.486;2024-03-23T02:41:41;13.32;;;10.95;;
45252;SDS011;63171;50.520;30.486;2024-03-23T02:42:30;13.05;;;11.60;;
45252;SDS011;63171;50.520;30.486;2024-03-23T02:43:20;14.43;;;12.40;;
45252;SDS011;63171;50.520;30.486;2024-03-23T02:44:11;18.70;;;12.85;;
45252;SDS011;63171;50.520;30.486;2024-03-23T02:45:01;20.20;;;14.23;;
45252;SDS011;63171;50.520;30.486;2024-03-23T02:45:53;17.40;;;12.75;;
45252;SDS011;63171;50.520;30.486;2024-03-23T02:46:43;16.23;;;12.93;;
45252;SDS011;63171;50.520;30.486;2024-03-23T02:47:33;13.18;;;11.85;;
45252;SDS011;63171;50.520;30.486;2024-03-23T02:48:24;14.10;;;12.48;;
45252;SDS011;63171;50.520;30.486;2024-03-23T02:49:13;16.25;;;13.07;;
45252;SDS011;63171;50.520;30.486;2024-03-23T02:50:04;16.27;;;12.10;;
45252;SDS011;63171;50.520;30.486;2024-03-23T02:50:54;15.05;;;12.02;;
45252;SDS011;63171;50.520;30.486;2024-03-23T02:51:45;15.70;;;12.45;;
45252;SDS011;63171;50.520;30.486;2024-03-23T02:52:37;17.05;;;12.63;;
45252;SDS011;63171;50.520;30.486;2024-03-23T02:53:28;15.82;;;12.70;;
45252;SDS011;63171;50.520;30.486;2024-03-23T02:54:18;15.23;;;13.50;;
45252;SDS011;63171;50.520;30.486;2024-03-23T02:55:09;13.82;;;12.40;;
45252;SDS011;63171;50.520;30.486;2024-03-23T02:55:59;17.98;;;12.80;;
45252;SDS011;63171;50.520;30.486;2024-03-23T02:56:48;14.55;;;13.05;;
45252;SDS011;63171;50.520;30.486;2024-03-23T02:57:38;19.85;;;12.85;;
45252;SDS011;63171;50.520;30.486;2024-03-23T02:58:30;13.30;;;11.27;;
45252;SDS011;63171;50.520;30.486;2024-03-23T02:59:20;16.42;;;11.57;;
45252;SDS011;63171;50.520;30.486;2024-03-23T03:00:10;14.65;;;12.68;;
45252;SDS011;63171;50.520;30.486;2024-03-23T03:01:50;14.85;;;12.35;;
45252;SDS011;63171;50.520;30.486;2024-03-23T03:02:40;15.35;;;13.80;;
45252;SDS011;63171;50.520;30.486;2024-03-23T03:03:30;14.18;;;12.13;;
45252;SDS011;63171;50.520;30.486;2024-03-23T03:04:20;18.05;;;12.77;;
45252;SDS011;63171;50.520;30.486;2024-03-23T03:05:11;15.25;;;12.32;;
45252;SDS011;63171;50.520;30.486;2024-03-23T03:06:51;15.02;;;13.05;;
45252;SDS011;63171;50.520;30.486;2024-03-23T03:07:40;17.40;;;13.07;;
45252;SDS011;63171;50.520;30.486;2024-03-23T03:08:32;18.33;;;12.45;;
45252;SDS011;63171;50.520;30.486;2024-03-23T03:09:23;19.20;;;13.75;;
45252;SDS011;63171;50.520;30.486;2024-03-23T03:10:13;15.52;;;12.70;;
45252;SDS011;63171;50.520;30.486;2024-03-23T03:11:03;14.85;;;13.18;;
45252;SDS011;63171;50.520;30.486;2024-03-23T03:11:54;15.77;;;12.25;;
45252;SDS011;63171;50.520;30.486;2024-03-23T03:12:43;16.23;;;13.02;;
45252;SDS011;63171;50.520;30.486;2024-03-23T03:13:33;16.70;;;13.88;;
45252;SDS011;63171;50.520;30.486;2024-03-23T03:14:23;17.60;;;12.95;;
45252;SDS011;63171;50.520;30.486;2024-03-23T03:15:13;13.52;;;12.10;;
45252;SDS011;63171;50.520;30.486;2024-03-23T03:16:04;18.80;;;14.90;;
45252;SDS011;63171;50.520;30.486;2024-03-23T03:16:58;16.77;;;13.65;;
45252;SDS011;63171;50.520;30.486;2024-03-23T03:17:47;13.85;;;11.38;;
45252;SDS011;63171;50.520;30.486;2024-03-23T03:18:37;14.90;;;12.63;;
45252;SDS011;63171;50.520;30.486;2024-03-23T03:19:27;16.58;;;13.25;;
45252;SDS011;63171;50.520;30.486;2024-03-23T03:20:18;13.70;;;12.23;;
45252;SDS011;63171;50.520;30.486;2024-03-23T03:21:08;16.17;;;12.30;;
45252;SDS011;63171;50.520;30.486;2024-03-23T03:22:00;16.65;;;14.40;;
45252;SDS011;63171;50.520;30.486;2024-03-23T03:22:49;15.55;;;13.10;;
45252;SDS011;63171;50.520;30.486;2024-03-23T03:23:43;15.07;;;13.50;;
45252;SDS011;63171;50.520;30.486;2024-03-23T03:24:33;14.95;;;12.70;;
45252;SDS011;63171;50.520;30.486;2024-03-23T03:25:23;15.27;;;13.45;;
45252;SDS011;63171;50.520;30.486;2024-03-23T03:26:13;14.95;;;12.15;;
45252;SDS011;63171;50.520;30.486;2024-03-23T03:27:04;15.05;;;13.45;;
45252;SDS011;63171;50.520;30.486;2024-03-23T03:27:54;16.77;;;13.15;;
45252;SDS011;63171;50.520;30.486;2024-03-23T03:28:43;13.93;;;12.30;;
45252;SDS011;63171;50.520;30.486;2024-03-23T03:29:37;14.65;;;13.05;;
45252;SDS011;63171;50.520;30.486;2024-03-23T03:30:28;15.95;;;12.88;;
45252;SDS011;63171;50.520;30.486;2024-03-23T03:31:18;18.20;;;13.45;;
45252;SDS011;63171;50.520;30.486;2024-03-23T03:32:08;16.17;;;11.82;;
45252;SDS011;63171;50.520;30.486;2024-03-23T03:32:58;18.00;;;13.35;;
45252;SDS011;63171;50.520;30.486;2024-03-23T03:33:49;16.15;;;13.32;;
45252;SDS011;63171;50.520;30.486;2024-03-23T03:34:40;16.67;;;13.18;;
45252;SDS011;63171;50.520;30.486;2024-03-23T03:35:30;15.75;;;13.32;;
45252;SDS011;63171;50.520;30.486;2024-03-23T03:36:20;15.95;;;12.60;;
45252;SDS011;63171;50.520;30.486;2024-03-23T03:37:10;17.38;;;13.75;;
45252;SDS011;63171;50.520;30.486;2024-03-23T03:38:00;17.80;;;13.93;;
45252;SDS011;63171;50.520;30.486;2024-03-23T03:38:52;15.32;;;13.57;;
45252;SDS011;63171;50.520;30.486;2024-03-23T03:39:42;19.17;;;13.05;;
45252;SDS011;63171;50.520;30.486;2024-03-23T03:40:31;15.32;;;13.40;;
45252;SDS011;63171;50.520;30.486;2024-03-23T03:41:21;14.98;;;13.30;;
45252;SDS011;63171;50.520;30.486;2024-03-23T03:42:12;17.50;;;12.95;;
45252;SDS011;63171;50.520;30.486;2024-03-23T03:43:02;14.52;;;13.02;;
45252;SDS011;63171;50.520;30.486;2024-03-23T03:43:52;17.73;;;13.48;;
45252;SDS011;63171;50.520;30.486;2024-03-23T03:44:42;15.18;;;13.00;;
45252;SDS011;63171;50.520;30.486;2024-03-23T03:45:31;19.65;;;12.65;;
45252;SDS011;63171;50.520;30.486;2024-03-23T03:46:22;14.02;;;12.55;;
45252;SDS011;63171;50.520;30.486;2024-03-23T03:47:12;15.40;;;12.63;;
45252;SDS011;63171;50.520;30.486;2024-03-23T03:48:02;15.93;;;14.23;;
45252;SDS011;63171;50.520;30.486;2024-03-23T03:48:52;15.68;;;12.65;;
45252;SDS011;63171;50.520;30.486;2024-03-23T03:49:41;17.33;;;13.35;;
45252;SDS011;63171;50.520;30.486;2024-03-23T03:50:32;19.48;;;14.13;;
45252;SDS011;63171;50.520;30.486;2024-03-23T03:51:21;15.35;;;12.05;;
45252;SDS011;63171;50.520;30.486;2024-03-23T03:52:11;14.55;;;12.77;;
45252;SDS011;63171;50.520;30.486;2024-03-23T03:53:01;16.85;;;13.50;;
45252;SDS011;63171;50.520;30.486;2024-03-23T03:53:52;18.20;;;11.90;;
45252;SDS011;63171;50.520;30.486;2024-03-23T03:54:43;13.80;;;12.05;;
45252;SDS011;63171;50.520;30.486;2024-03-23T03:55:33;16.25;;;13.43;;
45252;SDS011;63171;50.520;30.486;2024-03-23T03:56:22;15.68;;;13.88;;
45252;SDS011;63171;50.520;30.486;2024-03-23T03:57:12;16.70;;;13.95;;
45252;SDS011;63171;50.520;30.486;2024-03-23T03:58:02;19.02;;;14.35;;
45252;SDS011;63171;50.520;30.486;2024-03-23T03:58:53;20.08;;;15.23;;
45252;SDS011;63171;50.520;30.486;2024-03-23T03:59:43;15.95;;;14.10;;
45252;SDS011;63171;50.520;30.486;2024-03-23T04:00:33;16.33;;;14.02;;
45252;SDS011;63171;50.520;30.486;2024-03-23T04:01:23;20.00;;;13.77;;
45252;SDS011;63171;50.520;30.486;2024-03-23T04:02:13;17.48;;;13.30;;
45252;SDS011;63171;50.520;30.486;2024-03-23T04:03:03;15.48;;;13.77;;
45252;SDS011;63171;50.520;30.486;2024-03-23T04:04:43;14.60;;;13.10;;
45252;SDS011;63171;50.520;30.486;2024-03-23T04:05:32;15.18;;;12.82;;
45252;SDS011;63171;50.520;30.486;2024-03-23T04:06:23;17.02;;;15.23;;
45252;SDS011;63171;50.520;30.486;2024-03-23T04:07:13;15.30;;;13.13;;
45252;SDS011;63171;50.520;30.486;2024-03-23T04:08:03;14.85;;;13.23;;
45252;SDS011;63171;50.520;30.486;2024-03-23T04:09:45;19.58;;;14.82;;
45252;SDS011;63171;50.520;30.486;2024-03-23T04:10:35;21.85;;;14.32;;
45252;SDS011;63171;50.520;30.486;2024-03-23T04:12:14;16.20;;;13.57;;
45252;SDS011;63171;50.520;30.486;2024-03-23T04:13:05;16.67;;;14.50;;
45252;SDS011;63171;50.520;30.486;2024-03-23T04:13:55;15.77;;;12.88;;
45252;SDS011;63171;50.520;30.486;2024-03-23T04:14:44;15.75;;;14.07;;
45252;SDS011;63171;50.520;30.486;2024-03-23T04:15:34;20.13;;;14.00;;
45252;SDS011;63171;50.520;30.486;2024-03-23T04:16:26;16.23;;;14.50;;
45252;SDS011;63171;50.520;30.486;2024-03-23T04:17:16;15.80;;;13.48;;
45252;SDS011;63171;50.520;30.486;2024-03-23T04:18:06;18.70;;;14.45;;
45252;SDS011;63171;50.520;30.486;2024-03-23T04:18:56;20.00;;;13.98;;
45252;SDS011;63171;50.520;30.486;2024-03-23T04:19:46;17.58;;;15.38;;
45252;SDS011;63171;50.520;30.486;2024-03-23T04:20:38;19.80;;;14.55;;
45252;SDS011;63171;50.520;30.486;2024-03-23T04:21:27;19.77;;;15.13;;
45252;SDS011;63171;50.520;30.486;2024-03-23T04:22:17;15.80;;;13.75;;
45252;SDS011;63171;50.520;30.486;2024-03-23T04:23:07;16.38;;;14.43;;
45252;SDS011;63171;50.520;30.486;2024-03-23T04:23:59;22.15;;;14.57;;
45252;SDS011;63171;50.520;30.486;2024-03-23T04:24:49;17.23;;;14.32;;
45252;SDS011;63171;50.520;30.486;2024-03-23T04:25:39;19.02;;;15.10;;
45252;SDS011;63171;50.520;30.486;2024-03-23T04:26:28;15.85;;;14.07;;
45252;SDS011;63171;50.520;30.486;2024-03-23T04:27:19;15.90;;;14.18;;
45252;SDS011;63171;50.520;30.486;2024-03-23T04:28:09;18.58;;;15.63;;
45252;SDS011;63171;50.520;30.486;2024-03-23T04:28:59;17.48;;;14.60;;
45252;SDS011;63171;50.520;30.486;2024-03-23T04:29:50;16.70;;;14.25;;
45252;SDS011;63171;50.520;30.486;2024-03-23T04:30:41;19.50;;;14.20;;
45252;SDS011;63171;50.520;30.486;2024-03-23T04:31:31;17.77;;;14.88;;
45252;SDS011;63171;50.520;30.486;2024-03-23T04:32:23;18.05;;;15.48;;
45252;SDS011;63171;50.520;30.486;2024-03-23T04:33:13;17.75;;;14.70;;
45252;SDS011;63171;50.520;30.486;2024-03-23T04:34:04;20.63;;;15.55;;
45252;SDS011;63171;50.520;30.486;2024-03-23T04:34:54;18.33;;;15.15;;
45252;SDS011;63171;50.520;30.486;2024-03-23T04:35:44;20.08;;;13.98;;
45252;SDS011;63171;50.520;30.486;2024-03-23T04:36:33;32.22;;;15.38;;
45252;SDS011;63171;50.520;30.486;2024-03-23T04:37:23;20.17;;;14.65;;
45252;SDS011;63171;50.520;30.486;2024-03-23T04:38:14;18.80;;;15.23;;
45252;SDS011;63171;50.520;30.486;2024-03-23T04:39:07;21.73;;;16.27;;
45252;SDS011;63171;50.520;30.486;2024-03-23T04:39:58;23.38;;;15.00;;
45252;SDS011;63171;50.520;30.486;2024-03-23T04:40:53;19.00;;;14.48;;
45252;SDS011;63171;50.520;30.486;2024-03-23T04:41:43;24.10;;;15.73;;
45252;SDS011;63171;50.520;30.486;2024-03-23T04:42:33;19.80;;;15.55;;
45252;SDS011;63171;50.520;30.486;2024-03-23T04:43:24;19.75;;;16.13;;
45252;SDS011;63171;50.520;30.486;2024-03-23T04:44:14;19.00;;;14.82;;
45252;SDS011;63171;50.520;30.486;2024-03-23T04:45:04;24.40;;;17.92;;
45252;SDS011;63171;50.520;30.486;2024-03-23T04:45:56;19.00;;;15.63;;
45252;SDS011;63171;50.520;30.486;2024-03-23T04:46:46;17.10;;;14.82;;
45252;SDS011;63171;50.520;30.486;2024-03-23T04:47:37;18.35;;;16.45;;
45252;SDS011;63171;50.520;30.486;2024-03-23T04:48:27;18.33;;;15.57;;
45252;SDS011;63171;50.520;30.486;2024-03-23T04:49:18;16.67;;;14.98;;
45252;SDS011;63171;50.520;30.486;2024-03-23T04:50:08;21.85;;;16.08;;
45252;SDS011;63171;50.520;30.486;2024-03-23T04:50:59;20.20;;;16.13;;
45252;SDS011;63171;50.520;30.486;2024-03-23T04:51:50;17.27;;;15.35;;
45252;SDS011;63171;50.520;30.486;2024-03-23T04:52:39;20.88;;;16.45;;
45252;SDS011;63171;50.520;30.486;2024-03-23T04:53:29;19.30;;;16.50;;
45252;SDS011;63171;50.520;30.486;2024-03-23T04:54:20;21.30;;;16.80;;
45252;SDS011;63171;50.520;30.486;2024-03-23T04:55:12;18.42;;;16.25;;
45252;SDS011;63171;50.520;30.486;2024-03-23T04:56:03;18.55;;;15.80;;
45252;SDS011;63171;50.520;30.486;2024-03-23T04:57:44;17.90;;;16.00;;
45252;SDS011;63171;50.520;30.486;2024-03-23T04:58:34;17.67;;;15.57;;
45252;SDS011;63171;50.520;30.486;2024-03-23T04:59:24;19.42;;;16.40;;
45252;SDS011;63171;50.520;30.486;2024-03-23T05:00:14;19.17;;;16.73;;
45252;SDS011;63171;50.520;30.486;2024-03-23T05:01:06;18.35;;;16.08;;
45252;SDS011;63171;50.520;30.486;2024-03-23T05:01:57;20.08;;;16.65;;
45252;SDS011;63171;50.520;30.486;2024-03-23T05:02:46;22.38;;;18.00;;
45252;SDS011;63171;50.520;30.486;2024-03-23T05:03:36;23.67;;;16.85;;
45252;SDS011;63171;50.520;30.486;2024-03-23T05:04:26;21.25;;;18.00;;
45252;SDS011;63171;50.520;30.486;2024-03-23T05:05:16;18.58;;;16.40;;
45252;SDS011;63171;50.520;30.486;2024-03-23T05:06:07;18.98;;;16.98;;
45252;SDS011;63171;50.520;30.486;2024-03-23T05:06:57;21.80;;;16.65;;
45252;SDS011;63171;50.520;30.486;2024-03-23T05:07:47;19.60;;;17.42;;
45252;SDS011;63171;50.520;30.486;2024-03-23T05:08:36;18.88;;;16.33;;
45252;SDS011;63171;50.520;30.486;2024-03-23T05:09:29;24.67;;;17.67;;
45252;SDS011;63171;50.520;30.486;2024-03-23T05:10:19;23.25;;;18.30;;
45252;SDS011;63171;50.520;30.486;2024-03-23T05:11:09;22.20;;;17.38;;
45252;SDS011;63171;50.520;30.486;2024-03-23T05:12:49;24.75;;;17.88;;
45252;SDS011;63171;50.520;30.486;2024-03-23T05:13:41;21.23;;;17.17;;
45252;SDS011;63171;50.520;30.486;2024-03-23T05:14:30;22.85;;;16.02;;
45252;SDS011;63171;50.520;30.486;2024-03-23T05:15:20;19.90;;;16.48;;
45252;SDS011;63171;50.520;30.486;2024-03-23T05:16:10;20.95;;;17.58;;
45252;SDS011;63171;50.520;30.486;2024-03-23T05:16:59;22.15;;;19.17;;
45252;SDS011;63171;50.520;30.486;2024-03-23T05:17:50;21.95;;;18.42;;
45252;SDS011;63171;50.520;30.486;2024-03-23T05:18:40;30.23;;;18.52;;
45252;SDS011;63171;50.520;30.486;2024-03-23T05:19:29;22.15;;;17.02;;
45252;SDS011;63171;50.520;30.486;2024-03-23T05:20:19;21.98;;;19.27;;
45252;SDS011;63171;50.520;30.486;2024-03-23T05:21:09;23.17;;;18.48;;
45252;SDS011;63171;50.520;30.486;2024-03-23T05:22:00;22.98;;;18.45;;
45252;SDS011;63171;50.520;30.486;2024-03-23T05:22:49;18.95;;;17.02;;
45252;SDS011;63171;50.520;30.486;2024-03-23T05:23:39;25.52;;;17.92;;
45252;SDS011;63171;50.520;30.486;2024-03-23T05:24:30;20.25;;;17.52;;
45252;SDS011;63171;50.520;30.486;2024-03-23T05:25:20;21.48;;;18.60;;
45252;SDS011;63171;50.520;30.486;2024-03-23T05:26:11;23.60;;;18.85;;
45252;SDS011;63171;50.520;30.486;2024-03-23T05:27:00;20.20;;;16.75;;
45252;SDS011;63171;50.520;30.486;2024-03-23T05:27:50;21.20;;;17.05;;
45252;SDS011;63171;50.520;30.486;2024-03-23T05:28:40;22.63;;;18.23;;
45252;SDS011;63171;50.520;30.486;2024-03-23T05:29:31;22.88;;;17.42;;
45252;SDS011;63171;50.520;30.486;2024-03-23T05:30:21;24.73;;;18.27;;
45252;SDS011;63171;50.520;30.486;2024-03-23T05:31:11;22.83;;;19.00;;
45252;SDS011;63171;50.520;30.486;2024-03-23T05:32:00;24.23;;;17.33;;
45252;SDS011;63171;50.520;30.486;2024-03-23T05:32:51;20.92;;;17.58;;
45252;SDS011;63171;50.520;30.486;2024-03-23T05:33:41;21.35;;;17.17;;
45252;SDS011;63171;50.520;30.486;2024-03-23T05:35:20;20.60;;;17.17;;
45252;SDS011;63171;50.520;30.486;2024-03-23T05:36:11;19.63;;;17.10;;
45252;SDS011;63171;50.520;30.486;2024-03-23T05:37:01;25.45;;;20.73;;
45252;SDS011;63171;50.520;30.486;2024-03-23T05:37:51;20.42;;;18.05;;
45252;SDS011;63171;50.520;30.486;2024-03-23T05:38:42;20.35;;;17.40;;
45252;SDS011;63171;50.520;30.486;2024-03-23T05:39:33;24.15;;;17.67;;
45252;SDS011;63171;50.520;30.486;2024-03-23T05:40:23;21.45;;;18.08;;
45252;SDS011;63171;50.520;30.486;2024-03-23T05:41:13;22.38;;;17.42;;
45252;SDS011;63171;50.520;30.486;2024-03-23T05:42:04;22.27;;;16.48;;
45252;SDS011;63171;50.520;30.486;2024-03-23T05:42:55;19.85;;;17.20;;
45252;SDS011;63171;50.520;30.486;2024-03-23T05:43:45;24.02;;;17.33;;
45252;SDS011;63171;50.520;30.486;2024-03-23T05:44:35;31.08;;;20.08;;
45252;SDS011;63171;50.520;30.486;2024-03-23T05:45:25;24.77;;;17.42;;
45252;SDS011;63171;50.520;30.486;2024-03-23T05:46:15;21.90;;;16.85;;
45252;SDS011;63171;50.520;30.486;2024-03-23T05:47:05;23.85;;;18.65;;
45252;SDS011;63171;50.520;30.486;2024-03-23T05:47:55;21.67;;;16.77;;
45252;SDS011;63171;50.520;30.486;2024-03-23T05:49:35;25.10;;;17.67;;
45252;SDS011;63171;50.520;30.486;2024-03-23T05:50:27;24.23;;;18.33;;
45252;SDS011;63171;50.520;30.486;2024-03-23T05:51:17;25.95;;;17.10;;
45252;SDS011;63171;50.520;30.486;2024-03-23T05:52:07;26.83;;;17.67;;
45252;SDS011;63171;50.520;30.486;2024-03-23T05:52:56;26.77;;;18.77;;
45252;SDS011;63171;50.520;30.486;2024-03-23T05:53:47;22.48;;;18.75;;
45252;SDS011;63171;50.520;30.486;2024-03-23T05:54:39;25.58;;;18.80;;
45252;SDS011;63171;50.520;30.486;2024-03-23T05:55:28;26.23;;;18.83;;
45252;SDS011;63171;50.520;30.486;2024-03-23T05:56:19;28.70;;;20.02;;
45252;SDS011;63171;50.520;30.486;2024-03-23T05:57:09;23.77;;;17.08;;
45252;SDS011;63171;50.520;30.486;2024-03-23T05:58:01;25.25;;;17.65;;
45252;SDS011;63171;50.520;30.486;2024-03-23T05:58:50;26.02;;;18.65;;